Algona, Washington
Current Conditions -  °F | °C
As of 4:53 AM on Wednesday 22 Oct 2014 (Local Time) from KSEA Reporting Station
Light Rain Light Rain  
Wind Chill: 13°   Ceiling: 4900
Heat Index: 13°   Visibility: 9mi
Dew Point: 11°   Wind: 16mph
Humidity: 84%   Direction: 170°S
Pressure: 29.66"   Gusts: 24mph
Location:  47.31°N, 122.266°W
Report Text: KSEA 221153Z 17014G21KT 9SM -RA SCT042 BKN049 OVC070 13/11 A2966 RMK AO2 SLP050 P0006 60010 70011 T01330106 10156 20133 56010
Loading
Personal Weather Stations






























Interactive Weather Map
Tropical Storm Tracking
New forecast layout! Learn more

10-Day Weather Forecast

Advertisements
Track Severe Weather on mobile